Time;durP1;ratioP1;P1;durP2;ratioP2;P2;SDS_P1;SDS_P2;PMS_P1;PMS_P2;Temp;Humidity;BMP_temperature;BMP_pressure;BME280_temperature;BME280_humidity;BME280_pressure;Samples;Min_cycle;Max_cycle;Signal;HPM_P1;HPM_P2
2022/07/21 00:01:09;;;;;;;14.43;10.38;;;;;;;;;;5072846;28;20048;-65
2022/07/21 00:03:35;;;;;;;12.75;8.70;;;;;;;;;;5072527;28;20048;-65
2022/07/21 00:06:02;;;;;;;13.20;11.13;;;;;;;;;;5071815;28;20056;-65
2022/07/21 00:08:28;;;;;;;11.77;9.43;;;;;;;;;;5071486;28;20066;-65
2022/07/21 00:10:54;;;;;;;15.75;11.10;;;;;;;;;;5072895;28;20043;-65
2022/07/21 00:13:20;;;;;;;17.27;10.15;;;;;;;;;;5073401;28;20079;-65
2022/07/21 00:15:46;;;;;;;17.33;10.88;;;19.20;99.90;;;;;;5071112;28;20045;-65
2022/07/21 00:18:12;;;;;;;16.55;10.63;;;;;;;;;;5071902;28;20048;-65
2022/07/21 00:20:38;;;;;;;21.10;12.32;;;19.80;99.90;;;;;;5072173;28;20099;-65
2022/07/21 00:23:04;;;;;;;14.07;11.60;;;;;;;;;;5072228;28;20056;-65
2022/07/21 00:25:30;;;;;;;13.35;9.55;;;;;;;;;;5073720;28;20465;-65
2022/07/21 00:27:56;;;;;;;18.85;12.45;;;;;;;;;;5071453;28;20036;-65
2022/07/21 00:30:22;;;;;;;16.30;11.40;;;;;;;;;;5071040;28;20115;-65
2022/07/21 00:32:49;;;;;;;16.38;11.60;;;;;;;;;;5073045;28;20488;-65
2022/07/21 00:35:15;;;;;;;20.13;11.95;;;19.50;99.90;;;;;;5071038;28;20033;-65
2022/07/21 00:37:41;;;;;;;17.27;12.52;;;19.50;99.90;;;;;;5072075;28;20063;-65
2022/07/21 00:40:09;;;;;;;22.00;13.88;;;19.60;99.90;;;;;;5054802;28;20047;-65
2022/07/21 00:42:36;;;;;;;20.15;13.77;;;19.50;99.90;;;;;;5071947;28;20501;-65
2022/07/21 00:45:05;;;;;;;20.63;15.48;;;19.50;99.90;;;;;;5071399;28;20094;-65
2022/07/21 00:47:31;;;;;;;20.45;13.57;;;;;;;;;;5071465;28;20556;-65
2022/07/21 00:49:59;;;;;;;17.92;13.20;;;19.50;99.90;;;;;;5053576;28;20040;-66
2022/07/21 00:52:25;;;;;;;20.23;14.55;;;19.50;99.90;;;;;;5072859;28;20043;-65
2022/07/21 00:54:51;;;;;;;21.25;15.43;;;;;;;;;;5071147;28;20040;-65
2022/07/21 00:57:17;;;;;;;22.52;16.38;;;;;;;;;;5071510;28;20033;-65
2022/07/21 00:59:44;;;;;;;23.67;17.35;;;19.40;99.90;;;;;;5071061;28;20557;-65
2022/07/21 01:02:10;;;;;;;25.45;17.98;;;;;;;;;;5071486;28;20049;-65
2022/07/21 01:04:36;;;;;;;25.00;18.27;;;;;;;;;;5071959;28;20412;-65
2022/07/21 01:07:03;;;;;;;24.85;19.13;;;19.30;99.90;;;;;;5070722;28;20041;-65
2022/07/21 01:09:30;;;;;;;23.65;17.88;;;;;;;;;;5072256;28;20485;-65
2022/07/21 01:11:56;;;;;;;27.00;19.02;;;;;;;;;;5069829;28;20043;-65
2022/07/21 01:14:22;;;;;;;22.40;18.77;;;;;;;;;;5071473;28;20043;-65
2022/07/21 01:16:49;;;;;;;25.20;18.33;;;;;;;;;;5070848;28;20048;-65
2022/07/21 01:19:15;;;;;;;30.17;19.23;;;;;;;;;;5071313;28;20527;-65
2022/07/21 01:21:43;;;;;;;27.77;18.63;;;19.40;99.90;;;;;;5071174;28;20048;-65
2022/07/21 01:24:09;;;;;;;22.02;18.40;;;;;;;;;;5072226;28;20041;-65
2022/07/21 01:26:45;;;;;;;26.73;19.38;;;19.40;99.90;;;;;;5070359;28;20524;-65
2022/07/21 01:29:11;;;;;;;26.73;20.13;;;;;;;;;;5071966;28;20051;-65
2022/07/21 01:31:39;;;;;;;28.45;22.63;;;19.60;99.90;;;;;;5071523;28;20091;-65
2022/07/21 01:34:05;;;;;;;30.08;23.92;;;;;;;;;;5071538;28;20542;-65
2022/07/21 01:36:31;;;;;;;29.75;23.90;;;;;;;;;;5070889;28;20047;-65
2022/07/21 01:41:41;;;;;;;33.40;24.38;;;;;;;;;;5070998;28;20044;-65
2022/07/21 01:44:09;;;;;;;32.05;24.67;;;19.70;99.90;;;;;;5053581;28;20047;-65
2022/07/21 01:46:43;;;;;;;28.83;21.67;;;19.80;99.90;;;;;;5071386;28;20501;-65
2022/07/21 01:49:10;;;;;;;31.55;23.48;;;19.80;99.90;;;;;;5071709;28;20044;-65
2022/07/21 01:51:36;;;;;;;29.92;23.95;;;;;;;;;;5071932;28;20055;-65
2022/07/21 01:54:04;;;;;;;29.98;24.25;;;19.50;99.90;;;;;;5072044;28;20479;-65
2022/07/21 01:56:30;;;;;;;33.95;24.98;;;;;;;;;;5076063;28;20115;-66
2022/07/21 01:58:57;;;;;;;34.47;24.15;;;19.70;99.90;;;;;;5074311;28;20052;-66
2022/07/21 02:01:26;;;;;;;33.30;26.13;;;19.80;99.90;;;;;;5075241;28;20045;-66
2022/07/21 02:03:52;;;;;;;34.42;25.30;;;;;;;;;;5075750;28;20048;-66
2022/07/21 02:06:18;;;;;;;29.15;22.88;;;;;;;;;;5074760;28;20078;-66
2022/07/21 02:08:44;;;;;;;33.03;24.77;;;;;;;;;;5073549;28;20051;-66
2022/07/21 02:11:11;;;;;;;33.08;25.42;;;19.60;99.90;;;;;;5074604;28;20203;-66
2022/07/21 02:13:37;;;;;;;35.97;25.58;;;;;;;;;;5075709;28;20044;-65
2022/07/21 02:16:03;;;;;;;34.55;25.92;;;;;;;;;;5073636;28;20072;-66
2022/07/21 02:18:29;;;;;;;30.58;22.55;;;;;;;;;;5075678;28;20052;-66
2022/07/21 02:20:55;;;;;;;34.88;25.73;;;;;;;;;;5074398;28;20036;-66
2022/07/21 02:23:23;;;;;;;31.65;24.73;;;19.70;99.90;;;;;;5057639;28;20055;-66
2022/07/21 02:25:51;;;;;;;29.73;21.60;;;19.90;99.90;;;;;;5075788;28;20166;-66
2022/07/21 02:28:18;;;;;;;29.83;21.60;;;;;;;;;;5056564;28;20044;-66
2022/07/21 02:30:44;;;;;;;28.25;20.42;;;;;;;;;;5074039;28;20044;-66
2022/07/21 02:33:10;;;;;;;31.98;22.67;;;;;;;;;;5075083;28;20294;-67
2022/07/21 02:35:36;;;;;;;32.38;23.85;;;19.60;99.90;;;;;;5073320;28;20037;-67
2022/07/21 02:38:02;;;;;;;31.88;24.80;;;19.60;99.90;;;;;;5074871;28;20094;-67
2022/07/21 02:40:27;;;;;;;28.15;21.95;;;19.60;99.90;;;;;;5075219;28;20473;-67
2022/07/21 02:42:53;;;;;;;30.42;23.23;;;19.30;99.90;;;;;;5073932;28;20481;-67
2022/07/21 02:45:19;;;;;;;26.23;22.80;;;;;;;;;;5073968;28;20414;-67
2022/07/21 02:47:53;;;;;;;28.25;21.42;;;19.70;99.90;;;;;;5075017;28;20048;-66
2022/07/21 02:50:20;;;;;;;30.02;22.35;;;19.50;99.90;;;;;;5056273;28;20055;-67
2022/07/21 02:52:46;;;;;;;32.78;24.23;;;19.40;99.90;;;;;;5073815;28;20046;-67
2022/07/21 02:55:12;;;;;;;28.80;23.92;;;19.00;99.90;;;;;;5074853;28;20032;-66
2022/07/21 02:57:38;;;;;;;31.30;24.08;;;;;;;;;;5074212;28;20397;-66
2022/07/21 03:00:06;;;;;;;32.35;26.27;;;19.20;99.90;;;;;;5074243;28;20086;-66
2022/07/21 03:02:32;;;;;;;32.67;25.80;;;19.50;99.90;;;;;;5074815;28;20072;-66
2022/07/21 03:04:58;;;;;;;31.33;25.30;;;19.40;99.90;;;;;;5073073;28;20072;-66
2022/07/21 03:07:23;;;;;;;30.88;24.95;;;19.60;99.90;;;;;;5074106;28;20033;-66
2022/07/21 03:09:49;;;;;;;44.40;32.70;;;19.60;99.90;;;;;;5073207;28;20044;-66
2022/07/21 03:12:15;;;;;;;33.22;23.85;;;19.50;99.90;;;;;;5073728;28;20041;-66
2022/07/21 03:14:41;;;;;;;31.25;24.65;;;;;;;;;;5074458;28;20040;-66
2022/07/21 03:17:06;;;;;;;33.28;25.95;;;19.50;99.90;;;;;;5071989;28;20058;-66
2022/07/21 03:19:32;;;;;;;32.58;25.25;;;19.30;99.90;;;;;;5074522;28;20042;-66
2022/07/21 03:21:57;;;;;;;30.92;24.40;;;19.40;99.90;;;;;;5072658;28;20045;-66
2022/07/21 03:24:23;;;;;;;34.17;26.35;;;19.40;99.90;;;;;;5055938;28;20116;-66
2022/07/21 03:26:49;;;;;;;29.90;23.98;;;19.10;99.90;;;;;;5074165;28;20040;-66
2022/07/21 03:29:14;;;;;;;33.33;26.23;;;19.30;99.90;;;;;;5074206;28;20095;-66
2022/07/21 03:31:40;;;;;;;37.10;28.67;;;19.40;99.90;;;;;;5073700;28;20094;-66
2022/07/21 03:34:06;;;;;;;35.58;27.60;;;19.40;99.90;;;;;;5072644;28;20127;-66
2022/07/21 03:36:32;;;;;;;32.53;25.25;;;19.40;99.90;;;;;;5073068;28;20447;-66
2022/07/21 03:38:57;;;;;;;34.90;25.83;;;19.10;99.90;;;;;;5071847;28;20044;-66
2022/07/21 03:41:23;;;;;;;34.13;26.20;;;19.30;99.90;;;;;;5073206;28;20097;-65
2022/07/21 03:43:49;;;;;;;35.42;26.90;;;19.40;99.90;;;;;;5073767;28;20040;-65
2022/07/21 03:46:14;;;;;;;36.67;26.00;;;19.40;99.90;;;;;;5073045;28;20079;-65
2022/07/21 03:48:41;;;;;;;33.67;26.67;;;;;;;;;;5070021;28;20052;-66
2022/07/21 03:51:06;;;;;;;34.40;25.23;;;19.50;99.90;;;;;;5060606;28;20059;-66
2022/07/21 03:53:33;;;;;;;36.47;27.23;;;19.40;99.90;;;;;;5071811;28;20048;-66
2022/07/21 03:55:59;;;;;;;38.22;28.75;;;19.50;99.90;;;;;;5064797;28;20028;-66
2022/07/21 03:58:25;;;;;;;34.78;28.20;;;19.60;99.90;;;;;;5072427;28;20052;-66
2022/07/21 04:00:51;;;;;;;38.67;27.27;;;19.20;99.90;;;;;;5071428;28;20132;-66
2022/07/21 04:03:16;;;;;;;36.95;27.67;;;19.30;99.90;;;;;;5073601;28;20037;-66
2022/07/21 04:05:42;;;;;;;38.40;29.75;;;19.50;99.90;;;;;;5072384;28;20049;-66
2022/07/21 04:08:09;;;;;;;45.05;35.25;;;19.50;99.90;;;;;;5071058;28;20044;-66
2022/07/21 04:10:37;;;;;;;34.97;27.30;;;19.50;99.90;;;;;;5066762;28;20382;-65
2022/07/21 04:13:06;;;;;;;37.78;28.58;;;19.60;99.90;;;;;;5051913;28;20045;-66
2022/07/21 04:15:32;;;;;;;33.75;25.13;;;19.50;99.90;;;;;;5052914;28;20041;-66
2022/07/21 04:17:58;;;;;;;30.25;23.13;;;19.80;99.90;;;;;;5052485;28;20119;-65
2022/07/21 04:20:24;;;;;;;29.60;23.17;;;19.60;99.90;;;;;;5052563;28;20112;-65
2022/07/21 04:22:51;;;;;;;33.53;25.63;;;19.70;99.90;;;;;;5053170;28;20043;-66
2022/07/21 04:25:18;;;;;;;31.73;27.00;;;19.60;99.90;;;;;;5057982;28;20111;-65
2022/07/21 04:27:44;;;;;;;29.27;22.73;;;19.50;99.90;;;;;;5071890;28;20044;-65
2022/07/21 04:30:13;;;;;;;44.83;31.38;;;19.70;99.90;;;;;;5073046;28;20127;-65
2022/07/21 04:32:39;;;;;;;23.95;19.60;;;19.50;99.90;;;;;;5055378;28;20040;-66
2022/07/21 04:35:06;;;;;;;37.17;27.05;;;19.20;99.90;;;;;;5071561;28;20113;-66
2022/07/21 04:37:32;;;;;;;38.53;30.13;;;19.70;99.90;;;;;;5071985;28;20052;-66
2022/07/21 04:39:57;;;;;;;38.30;29.65;;;19.90;99.90;;;;;;5066080;28;20478;-66
2022/07/21 04:42:23;;;;;;;31.63;25.35;;;19.50;99.90;;;;;;5051969;28;20037;-66
2022/07/21 04:44:48;;;;;;;32.35;24.50;;;19.30;99.90;;;;;;5052825;28;20440;-66
2022/07/21 04:47:14;;;;;;;36.15;27.25;;;19.50;99.90;;;;;;5052816;28;20037;-66
2022/07/21 04:49:40;;;;;;;32.40;25.42;;;19.60;99.90;;;;;;5051849;28;20131;-66
2022/07/21 04:52:06;;;;;;;30.73;24.73;;;19.90;99.90;;;;;;5051081;28;20049;-66
2022/07/21 04:54:32;;;;;;;39.08;27.88;;;;;;;;;;5053350;28;20059;-65
2022/07/21 04:56:59;;;;;;;37.83;30.20;;;19.70;99.90;;;;;;5050197;28;20474;-65
2022/07/21 04:59:24;;;;;;;28.98;22.88;;;19.80;99.90;;;;;;5052633;28;20486;-66
2022/07/21 05:01:50;;;;;;;34.58;25.67;;;20.00;99.90;;;;;;5050998;28;20048;-65
2022/07/21 05:04:16;;;;;;;36.30;29.50;;;19.70;99.90;;;;;;5051493;28;20047;-66
2022/07/21 05:06:41;;;;;;;31.80;26.20;;;19.70;99.90;;;;;;5051334;28;20123;-66
2022/07/21 05:09:07;;;;;;;29.88;24.45;;;19.80;99.90;;;;;;5050646;28;20448;-66
2022/07/21 05:11:33;;;;;;;45.53;33.92;;;19.60;99.90;;;;;;5051804;28;20128;-66
2022/07/21 05:13:58;;;;;;;36.75;29.73;;;19.70;99.90;;;;;;5052032;28;20035;-66
2022/07/21 05:16:24;;;;;;;33.40;26.88;;;19.70;99.90;;;;;;5067056;28;20041;-66
2022/07/21 05:18:50;;;;;;;29.67;25.23;;;19.60;99.90;;;;;;5071195;28;20545;-66
2022/07/21 05:21:15;;;;;;;34.00;25.67;;;19.50;99.90;;;;;;5070957;28;20192;-65
2022/07/21 05:23:41;;;;;;;35.63;27.92;;;19.40;99.90;;;;;;5071461;28;20044;-66
2022/07/21 05:26:07;;;;;;;25.08;20.65;;;19.90;99.90;;;;;;5072087;28;20044;-66
2022/07/21 05:28:32;;;;;;;27.10;20.95;;;19.60;99.90;;;;;;5070343;28;20464;-66
2022/07/21 05:30:58;;;;;;;30.45;24.58;;;19.40;99.90;;;;;;5070326;28;20049;-66
2022/07/21 05:33:23;;;;;;;24.90;21.88;;;19.60;99.90;;;;;;5072299;28;20036;-66
2022/07/21 05:35:49;;;;;;;22.77;19.67;;;19.50;99.90;;;;;;5070772;28;20040;-66
2022/07/21 05:38:15;;;;;;;27.05;21.58;;;;;;;;;;5070745;28;20085;-66
2022/07/21 05:40:41;;;;;;;26.40;22.00;;;;;;;;;;5070975;28;20066;-66
2022/07/21 05:43:07;;;;;;;21.65;18.40;;;19.90;99.90;;;;;;5071715;28;20048;-66
2022/07/21 05:45:32;;;;;;;24.48;19.30;;;19.70;99.90;;;;;;5070432;28;20036;-66
2022/07/21 05:47:58;;;;;;;23.55;19.67;;;19.70;99.90;;;;;;5053502;28;20477;-66
2022/07/21 05:50:24;;;;;;;25.77;20.52;;;19.60;99.90;;;;;;5068918;28;20102;-66
2022/07/21 05:52:49;;;;;;;23.58;20.17;;;19.50;99.90;;;;;;5069974;28;20518;-65
2022/07/21 05:55:15;;;;;;;25.98;21.10;;;19.60;99.90;;;;;;5070895;28;20473;-65
2022/07/21 05:57:41;;;;;;;23.02;20.17;;;19.50;99.90;;;;;;5072048;28;20052;-65
2022/07/21 06:00:08;;;;;;;21.55;17.73;;;19.40;99.90;;;;;;5070448;28;20072;-65
2022/07/21 06:02:33;;;;;;;28.42;23.83;;;19.50;99.90;;;;;;5072007;28;20447;-65
2022/07/21 06:04:59;;;;;;;28.00;22.55;;;19.70;99.90;;;;;;5064572;28;20033;-66
2022/07/21 06:07:25;;;;;;;20.30;16.83;;;19.60;99.90;;;;;;5051077;28;20095;-65
2022/07/21 06:09:51;;;;;;;26.10;19.10;;;19.80;99.90;;;;;;5050258;28;20075;-65
2022/07/21 06:12:17;;;;;;;21.88;17.90;;;19.40;99.90;;;;;;5033779;28;20091;-65
2022/07/21 06:14:43;;;;;;;21.45;18.27;;;;;;;;;;5050456;28;20111;-65
2022/07/21 06:17:08;;;;;;;27.42;23.05;;;19.80;99.90;;;;;;5071514;28;20032;-65
2022/07/21 06:19:34;;;;;;;21.33;19.05;;;19.60;99.90;;;;;;5070668;28;20123;-65
2022/07/21 06:22:02;;;;;;;22.70;19.10;;;19.90;99.90;;;;;;5069194;28;20044;-65
2022/07/21 06:24:28;;;;;;;24.10;19.25;;;19.60;99.90;;;;;;5071994;28;20098;-65
2022/07/21 06:26:56;;;;;;;22.20;18.58;;;19.70;99.90;;;;;;5064815;28;20390;-65
2022/07/21 06:29:23;;;;;;;21.50;18.17;;;19.60;99.90;;;;;;5060408;28;20032;-65
2022/07/21 06:31:48;;;;;;;24.10;20.67;;;19.60;99.90;;;;;;5069998;28;20047;-65
2022/07/21 06:34:14;;;;;;;29.85;24.48;;;19.60;99.90;;;;;;5052675;28;20045;-65
2022/07/21 06:36:43;;;;;;;21.38;19.08;;;;;;;;;;5053282;28;20470;-64
2022/07/21 06:39:12;;;;;;;23.13;18.30;;;19.40;99.90;;;;;;5070008;28;20049;-64
2022/07/21 06:41:38;;;;;;;26.70;22.30;;;19.50;99.90;;;;;;5071902;28;20390;-64
2022/07/21 06:44:05;;;;;;;24.63;18.83;;;19.60;99.90;;;;;;5043701;28;20086;-64
2022/07/21 06:46:31;;;;;;;26.25;20.77;;;19.70;99.90;;;;;;5075433;28;20070;-64
2022/07/21 06:48:57;;;;;;;24.02;17.58;;;;;;;;;;5065204;28;20507;-64
2022/07/21 06:51:23;;;;;;;24.60;19.92;;;20.20;99.90;;;;;;5070955;28;20512;-64
2022/07/21 06:53:49;;;;;;;24.13;19.55;;;;;;;;;;5072001;28;20102;-64
2022/07/21 06:56:17;;;;;;;21.65;18.23;;;19.90;99.90;;;;;;5071436;28;20512;-64
2022/07/21 06:58:43;;;;;;;20.70;18.38;;;;;;;;;;5069997;28;20447;-64
2022/07/21 07:01:09;;;;;;;21.13;17.55;;;19.70;99.90;;;;;;5071717;28;20115;-64
2022/07/21 07:03:35;;;;;;;22.00;18.90;;;;;;;;;;5068597;28;20465;-64
2022/07/21 07:06:00;;;;;;;23.23;19.05;;;19.80;99.90;;;;;;5067494;28;20044;-64
2022/07/21 07:08:26;;;;;;;20.55;17.60;;;;;;;;;;5053975;28;20045;-64
2022/07/21 07:10:52;;;;;;;23.80;19.08;;;;;;;;;;5062126;28;20044;-64
2022/07/21 07:13:18;;;;;;;23.48;19.55;;;;;;;;;;5070678;28;20504;-64
2022/07/21 07:15:44;;;;;;;24.73;20.80;;;;;;;;;;5071685;28;20405;-64
2022/07/21 07:18:11;;;;;;;27.48;23.83;;;;;;;;;;5069099;28;20044;-64
2022/07/21 07:20:37;;;;;;;22.65;19.88;;;20.10;99.90;;;;;;5066889;28;20128;-64
2022/07/21 07:23:03;;;;;;;23.88;20.38;;;;;;;;;;5068911;28;20471;-64
2022/07/21 07:25:29;;;;;;;23.27;18.80;;;;;;;;;;5050759;28;20167;-64
2022/07/21 07:27:56;;;;;;;25.33;19.05;;;;;;;;;;5051014;28;20057;-64
2022/07/21 07:30:22;;;;;;;22.20;18.77;;;19.90;99.90;;;;;;5050921;28;20068;-64
2022/07/21 07:32:48;;;;;;;20.65;18.20;;;19.90;99.90;;;;;;5050188;28;20041;-64
2022/07/21 07:35:15;;;;;;;26.83;21.30;;;20.30;99.90;;;;;;5051270;28;20048;-64
2022/07/21 07:37:43;;;;;;;26.23;20.02;;;20.20;99.90;;;;;;5053246;28;20116;-64
2022/07/21 07:40:12;;;;;;;22.13;19.02;;;21.10;99.90;;;;;;5068551;28;20478;-63
2022/07/21 07:42:38;;;;;;;24.75;20.30;;;;;;;;;;5066882;28;20045;-63
2022/07/21 07:45:05;;;;;;;23.25;19.50;;;20.40;99.90;;;;;;5048771;28;20481;-63
2022/07/21 07:47:32;;;;;;;23.15;19.92;;;;;;;;;;5050324;28;20486;-63
2022/07/21 07:49:58;;;;;;;23.23;20.42;;;;;;;;;;5066413;28;20060;-63
2022/07/21 07:52:24;;;;;;;20.80;18.58;;;20.40;99.90;;;;;;5062513;28;20040;-63
2022/07/21 07:54:50;;;;;;;23.60;20.42;;;;;;;;;;5058873;28;20560;-63
2022/07/21 07:57:16;;;;;;;23.13;19.67;;;;;;;;;;5060038;28;20048;-62
2022/07/21 07:59:42;;;;;;;23.38;20.60;;;20.00;99.90;;;;;;5064125;28;20051;-63
2022/07/21 08:02:07;;;;;;;23.73;20.88;;;19.90;99.90;;;;;;5070700;28;20040;-63
2022/07/21 08:04:33;;;;;;;24.48;20.58;;;19.90;99.90;;;;;;5057819;28;20045;-63
2022/07/21 08:06:59;;;;;;;22.48;19.38;;;;;;;;;;5054055;28;20379;-63
2022/07/21 08:09:25;;;;;;;27.65;21.75;;;;;;;;;;5065060;28;20049;-63
2022/07/21 08:11:52;;;;;;;25.20;22.55;;;20.30;99.90;;;;;;5051513;28;20697;-63
2022/07/21 08:14:17;;;;;;;25.40;21.08;;;20.00;99.90;;;;;;5048923;28;20123;-63
2022/07/21 08:16:45;;;;;;;25.95;23.15;;;;;;;;;;5052511;28;20037;-63
2022/07/21 08:19:10;;;;;;;27.52;23.50;;;20.40;99.90;;;;;;5051103;28;20053;-63
2022/07/21 08:21:37;;;;;;;23.50;20.73;;;;;;;;;;5050894;28;20087;-63
2022/07/21 08:24:03;;;;;;;28.40;25.40;;;;;;;;;;5052874;28;20122;-63
2022/07/21 08:26:29;;;;;;;26.25;21.35;;;;;;;;;;5056939;28;20492;-63
2022/07/21 08:28:56;;;;;;;24.92;22.23;;;19.90;99.90;;;;;;5055995;28;20505;-63
2022/07/21 08:31:23;;;;;;;24.27;21.17;;;;;;;;;;5049652;28;20055;-63
2022/07/21 08:33:50;;;;;;;31.13;24.73;;;20.40;99.90;;;;;;5052495;28;20091;-63
2022/07/21 08:36:16;;;;;;;26.23;21.98;;;20.20;99.90;;;;;;5032939;28;20081;-63
2022/07/21 08:38:42;;;;;;;25.25;22.10;;;;;;;;;;5061863;28;20501;-63
2022/07/21 08:41:08;;;;;;;25.17;21.85;;;20.50;99.90;;;;;;5050999;28;20045;-63
2022/07/21 08:43:34;;;;;;;26.17;22.10;;;;;;;;;;5051718;28;20409;-63
2022/07/21 08:46:00;;;;;;;24.17;20.45;;;;;;;;;;5065747;28;20032;-63
2022/07/21 08:48:29;;;;;;;28.20;22.27;;;20.40;99.90;;;;;;5058708;28;20045;-63
2022/07/21 08:50:56;;;;;;;26.60;23.10;;;20.40;99.90;;;;;;5053405;28;20494;-63
2022/07/21 08:53:22;;;;;;;26.45;22.25;;;20.60;99.90;;;;;;5052388;28;20049;-63
2022/07/21 08:55:48;;;;;;;29.02;23.75;;;20.60;99.90;;;;;;5051755;28;20083;-63
2022/07/21 08:58:14;;;;;;;28.35;24.92;;;20.70;99.90;;;;;;5065338;28;20044;-63
2022/07/21 09:00:46;;;;;;;28.50;25.02;;;20.70;99.90;;;;;;5057998;28;20067;-63
2022/07/21 09:03:22;;;;;;;34.28;28.80;;;20.40;99.90;;;;;;5061854;28;20037;-63
2022/07/21 09:06:07;;;;;;;33.30;28.45;;;21.00;99.90;;;;;;5052488;28;20115;-63
2022/07/21 09:08:42;;;;;;;30.33;24.30;;;20.60;99.90;;;;;;5051592;28;20045;-63
2022/07/21 09:11:11;;;;;;;31.48;27.35;;;20.80;99.90;;;;;;5061459;28;20389;-63
2022/07/21 09:13:37;;;;;;;33.08;28.77;;;20.70;99.90;;;;;;5067074;28;20036;-63
2022/07/21 09:16:02;;;;;;;30.63;26.75;;;20.70;99.90;;;;;;5069494;28;20483;-63
2022/07/21 09:18:29;;;;;;;30.30;25.70;;;;;;;;;;5063217;28;20047;-63
2022/07/21 09:20:55;;;;;;;27.10;23.58;;;21.20;99.90;;;;;;5066699;28;20076;-63
2022/07/21 09:23:23;;;;;;;27.98;23.90;;;20.90;99.90;;;;;;5051969;28;20075;-63
2022/07/21 09:25:54;;;;;;;27.50;24.13;;;21.30;99.90;;;;;;5058971;28;20120;-62
2022/07/21 09:28:23;;;;;;;26.42;23.48;;;21.00;99.90;;;;;;5066612;28;20036;-63
2022/07/21 09:31:06;;;;;;;28.98;23.67;;;21.30;99.90;;;;;;5057163;28;20063;-63
2022/07/21 09:33:33;;;;;;;24.42;19.88;;;21.20;99.90;;;;;;5062201;28;20477;-65
2022/07/21 09:36:08;;;;;;;25.77;20.83;;;21.70;99.90;;;;;;5050238;28;20059;-66
2022/07/21 09:38:36;;;;;;;21.30;17.60;;;21.30;99.90;;;;;;5054163;28;20068;-66
2022/07/21 09:41:07;;;;;;;20.02;15.38;;;21.30;99.90;;;;;;5041507;28;20032;-65
2022/07/21 09:43:42;;;;;;;16.48;14.65;;;20.90;99.90;;;;;;5070532;28;20049;-64
2022/07/21 09:46:11;;;;;;;16.48;14.77;;;20.70;99.90;;;;;;5064309;28;20056;-66
2022/07/21 09:48:39;;;;;;;16.20;14.50;;;21.00;99.90;;;;;;5070261;28;20126;-67
2022/07/21 09:51:21;;;;;;;18.15;16.23;;;21.10;99.90;;;;;;5069774;28;20106;-66
2022/07/21 09:53:52;;;;;;;17.38;15.13;;;20.70;99.90;;;;;;5070826;28;20076;-66
2022/07/21 09:56:19;;;;;;;17.30;15.27;;;21.00;99.90;;;;;;5053972;28;20119;-66
2022/07/21 09:58:50;;;;;;;18.77;16.23;;;20.90;99.90;;;;;;5070835;28;20075;-67
2022/07/21 10:01:16;;;;;;;19.65;16.45;;;21.20;99.90;;;;;;5070596;28;20048;-66
2022/07/21 10:03:45;;;;;;;18.50;16.50;;;21.10;99.90;;;;;;5072255;28;20068;-66
2022/07/21 10:06:11;;;;;;;21.05;16.08;;;20.80;99.90;;;;;;5070943;28;20052;-66
2022/07/21 10:08:37;;;;;;;18.92;15.32;;;21.00;99.90;;;;;;5070718;28;20040;-66
2022/07/21 10:11:04;;;;;;;17.40;15.48;;;21.00;99.90;;;;;;5071323;28;20036;-66
2022/07/21 10:13:31;;;;;;;16.92;14.25;;;21.70;99.90;;;;;;5071105;28;20041;-66
2022/07/21 10:15:58;;;;;;;14.55;11.80;;;20.90;99.90;;;;;;5055995;28;20032;-66
2022/07/21 10:18:27;;;;;;;14.10;10.82;;;21.00;99.90;;;;;;5074473;28;20080;-66
2022/07/21 10:21:04;;;;;;;13.77;11.70;;;20.60;99.90;;;;;;5073227;28;20048;-66
2022/07/21 10:23:41;;;;;;;14.45;11.57;;;20.80;99.90;;;;;;5075696;28;20098;-67
2022/07/21 10:26:09;;;;;;;17.20;14.70;;;20.50;99.90;;;;;;5056364;28;20048;-66
2022/07/21 10:28:35;;;;;;;13.93;12.43;;;20.60;99.90;;;;;;5075637;28;20029;-66
2022/07/21 10:31:14;;;;;;;14.27;12.45;;;20.40;99.90;;;;;;5075197;28;20495;-66
2022/07/21 10:33:49;;;;;;;16.27;13.00;;;20.30;99.90;;;;;;5073659;28;20083;-66
2022/07/21 10:36:27;;;;;;;18.95;14.80;;;20.30;99.90;;;;;;5073991;28;20139;-66
2022/07/21 10:39:17;;;;;;;18.40;14.93;;;20.20;99.90;;;;;;5074678;28;20040;-66
2022/07/21 10:41:51;;;;;;;22.25;17.10;;;20.20;99.90;;;;;;5073339;28;20059;-66
2022/07/21 10:44:30;;;;;;;;;;;20.20;99.90;;;;;;5074229;28;20569;-66
2022/07/21 10:47:20;;;;;;;22.05;17.83;;;20.20;99.90;;;;;;5074915;28;19920;-66
2022/07/21 10:50:00;;;;;;;19.33;17.23;;;20.50;99.90;;;;;;5074120;28;20060;-66
2022/07/21 10:52:34;;;;;;;23.42;18.88;;;20.20;99.90;;;;;;5075170;28;20056;-66
2022/07/21 10:55:17;;;;;;;22.25;18.52;;;19.80;99.90;;;;;;5072585;28;20049;-66
2022/07/21 10:57:47;;;;;;;20.75;17.05;;;20.20;99.90;;;;;;5075375;28;20048;-66
2022/07/21 11:00:23;;;;;;;21.35;18.15;;;20.20;99.90;;;;;;5073496;28;20126;-66
2022/07/21 11:03:00;;;;;;;23.40;19.65;;;19.80;99.90;;;;;;5074097;28;20040;-66
2022/07/21 11:05:29;;;;;;;21.48;18.45;;;20.40;99.90;;;;;;5073643;28;20105;-66
2022/07/21 11:08:21;;;;;;;25.38;20.48;;;20.10;99.90;;;;;;5071086;28;20048;-66
2022/07/21 11:10:53;;;;;;;18.55;14.77;;;20.40;99.90;;;;;;5063006;28;20047;-64
2022/07/21 11:13:25;;;;;;;12.35;9.48;;;20.20;99.90;;;;;;5068838;28;20032;-65
2022/07/21 11:15:51;;;;;;;11.75;7.80;;;20.80;99.90;;;;;;5061952;28;20037;-66
2022/07/21 11:18:25;;;;;;;8.50;6.72;;;20.10;99.90;;;;;;5074194;28;20079;-66
2022/07/21 11:21:00;;;;;;;;;;;20.10;99.90;;;;;;5065942;28;20041;-61
2022/07/21 11:23:39;;;;;;;9.20;7.43;;;19.70;99.90;;;;;;5054369;28;19917;-61
2022/07/21 11:26:05;;;;;;;9.07;6.57;;;20.20;99.90;;;;;;5058716;28;20045;-61
2022/07/21 11:28:31;;;;;;;7.18;5.60;;;20.30;99.90;;;;;;5062582;28;20039;-61
2022/07/21 11:31:21;;;;;;;7.47;5.03;;;20.30;99.90;;;;;;5063087;28;20120;-61
2022/07/21 11:33:48;;;;;;;5.72;4.05;;;19.90;99.90;;;;;;5069192;28;20036;-61
2022/07/21 11:36:43;;;;;;;5.88;3.85;;;19.60;99.90;;;;;;5060127;28;20036;-62
2022/07/21 11:39:12;;;;;;;6.20;4.13;;;19.80;99.90;;;;;;5054903;28;20118;-62
2022/07/21 11:41:40;;;;;;;5.97;3.53;;;20.10;99.90;;;;;;5067589;28;20044;-61
2022/07/21 11:44:07;;;;;;;6.15;4.30;;;19.80;99.90;;;;;;5068142;28;20048;-61
2022/07/21 11:46:49;;;;;;;8.00;4.63;;;19.80;99.90;;;;;;5067089;28;20033;-62
2022/07/21 11:49:15;;;;;;;9.27;4.93;;;19.90;99.90;;;;;;5050964;28;20474;-62
2022/07/21 11:51:58;;;;;;;6.63;4.55;;;19.50;99.90;;;;;;5066466;28;20049;-62
2022/07/21 11:54:38;;;;;;;7.28;4.93;;;19.90;99.90;;;;;;5059006;28;20048;-62
2022/07/21 11:57:06;;;;;;;6.35;4.38;;;19.70;99.90;;;;;;5064396;28;20083;-62
2022/07/21 11:59:33;;;;;;;6.00;4.18;;;19.70;99.90;;;;;;5065820;28;20071;-62
2022/07/21 12:02:14;;;;;;;6.40;3.83;;;19.80;99.90;;;;;;5063399;28;20112;-62
2022/07/21 12:04:52;;;;;;;7.10;4.63;;;20.00;99.90;;;;;;5050362;28;20060;-62
2022/07/21 12:07:40;;;;;;;5.75;4.00;;;19.80;99.90;;;;;;5055410;28;20452;-61
2022/07/21 12:10:07;;;;;;;9.23;5.00;;;20.40;99.90;;;;;;5062208;28;20040;-62
2022/07/21 12:12:39;;;;;;;6.47;4.55;;;19.70;99.90;;;;;;5049246;28;20052;-62
2022/07/21 12:15:22;;;;;;;7.30;5.28;;;20.00;99.90;;;;;;5051222;28;20091;-62
2022/07/21 12:17:51;;;;;;;7.13;5.15;;;20.50;99.90;;;;;;5053840;28;20114;-62
2022/07/21 12:20:27;;;;;;;7.22;5.63;;;19.60;99.90;;;;;;5063026;28;20048;-61
2022/07/21 12:22:54;;;;;;;7.07;5.90;;;20.30;99.90;;;;;;5051725;28;20044;-61
2022/07/21 12:25:37;;;;;;;7.32;5.45;;;20.30;99.90;;;;;;5062799;28;20432;-62
2022/07/21 12:28:04;;;;;;;7.80;5.95;;;20.70;99.90;;;;;;5048821;28;20052;-62
2022/07/21 12:30:39;;;;;;;7.30;5.82;;;20.30;99.90;;;;;;5062113;28;20048;-61
2022/07/21 12:33:20;;;;;;;7.55;6.03;;;20.30;99.90;;;;;;5065741;28;20473;-61
2022/07/21 12:35:58;;;;;;;8.82;5.70;;;20.30;99.90;;;;;;5061452;28;20048;-61
2022/07/21 12:38:38;;;;;;;8.15;5.78;;;20.80;99.90;;;;;;5050253;28;20049;-62
2022/07/21 12:41:04;;;;;;;8.63;6.70;;;19.80;99.90;;;;;;5062832;28;20117;-62
2022/07/21 12:43:30;;;;;;;7.93;6.13;;;20.40;99.90;;;;;;5059883;28;20119;-62
2022/07/21 12:45:57;;;;;;;7.47;5.72;;;20.20;99.90;;;;;;5056109;28;20528;-62
2022/07/21 12:48:25;;;;;;;8.52;5.97;;;20.30;99.90;;;;;;5053677;28;20111;-62
2022/07/21 12:51:06;;;;;;;8.10;6.47;;;20.30;99.90;;;;;;5055478;28;20056;-62
2022/07/21 12:53:34;;;;;;;8.98;6.45;;;21.80;99.90;;;;;;5062562;28;20047;-62
2022/07/21 12:56:00;;;;;;;7.50;5.97;;;20.30;99.90;;;;;;5050865;28;20181;-62
2022/07/21 12:58:27;;;;;;;8.75;5.78;;;21.60;99.90;;;;;;5069075;28;20111;-62
2022/07/21 13:00:53;;;;;;;8.68;6.53;;;;;;;;;;5047492;28;20048;-62
2022/07/21 13:03:19;;;;;;;7.50;5.70;;;20.80;99.90;;;;;;5050830;28;20175;-62